sensor_id;sensor_type;location;lat;lon;timestamp;P1;durP1;ratioP1;P2;durP2;ratioP2
47669;SDS011;33408;52.062;11.722;2022-10-17T00:02:14;7.57;;;4.28;;
47669;SDS011;33408;52.062;11.722;2022-10-17T00:04:40;8.10;;;4.28;;
47669;SDS011;33408;52.062;11.722;2022-10-17T00:07:07;11.98;;;4.35;;
47669;SDS011;33408;52.062;11.722;2022-10-17T00:09:33;7.57;;;3.85;;
47669;SDS011;33408;52.062;11.722;2022-10-17T00:12:00;6.35;;;3.78;;
47669;SDS011;33408;52.062;11.722;2022-10-17T00:14:27;9.35;;;4.28;;
47669;SDS011;33408;52.062;11.722;2022-10-17T00:16:55;7.07;;;3.60;;
47669;SDS011;33408;52.062;11.722;2022-10-17T00:19:21;11.05;;;3.88;;
47669;SDS011;33408;52.062;11.722;2022-10-17T00:21:48;8.90;;;3.33;;
47669;SDS011;33408;52.062;11.722;2022-10-17T00:24:14;7.80;;;3.65;;
47669;SDS011;33408;52.062;11.722;2022-10-17T00:26:41;7.55;;;3.28;;
47669;SDS011;33408;52.062;11.722;2022-10-17T00:29:07;7.28;;;3.92;;
47669;SDS011;33408;52.062;11.722;2022-10-17T00:31:34;7.80;;;4.10;;
47669;SDS011;33408;52.062;11.722;2022-10-17T00:34:02;6.10;;;3.25;;
47669;SDS011;33408;52.062;11.722;2022-10-17T00:36:28;8.50;;;3.58;;
47669;SDS011;33408;52.062;11.722;2022-10-17T00:38:56;7.72;;;3.97;;
47669;SDS011;33408;52.062;11.722;2022-10-17T00:41:25;6.40;;;3.33;;
47669;SDS011;33408;52.062;11.722;2022-10-17T00:43:55;5.45;;;2.95;;
47669;SDS011;33408;52.062;11.722;2022-10-17T00:46:28;5.72;;;3.38;;
47669;SDS011;33408;52.062;11.722;2022-10-17T00:48:57;8.32;;;3.58;;
47669;SDS011;33408;52.062;11.722;2022-10-17T00:51:28;6.72;;;3.70;;
47669;SDS011;33408;52.062;11.722;2022-10-17T00:53:59;6.95;;;3.60;;
47669;SDS011;33408;52.062;11.722;2022-10-17T00:56:28;6.20;;;3.22;;
47669;SDS011;33408;52.062;11.722;2022-10-17T00:58:55;6.25;;;3.58;;
47669;SDS011;33408;52.062;11.722;2022-10-17T01:01:22;5.72;;;2.92;;
47669;SDS011;33408;52.062;11.722;2022-10-17T01:03:49;5.97;;;3.33;;
47669;SDS011;33408;52.062;11.722;2022-10-17T01:06:15;7.57;;;4.00;;
47669;SDS011;33408;52.062;11.722;2022-10-17T01:08:43;6.82;;;3.90;;
47669;SDS011;33408;52.062;11.722;2022-10-17T01:11:12;8.23;;;3.63;;
47669;SDS011;33408;52.062;11.722;2022-10-17T01:13:49;6.15;;;3.35;;
47669;SDS011;33408;52.062;11.722;2022-10-17T01:16:21;7.35;;;3.65;;
47669;SDS011;33408;52.062;11.722;2022-10-17T01:18:59;11.90;;;3.63;;
47669;SDS011;33408;52.062;11.722;2022-10-17T01:21:43;5.90;;;3.55;;
47669;SDS011;33408;52.062;11.722;2022-10-17T01:33:27;6.18;;;3.75;;
47669;SDS011;33408;52.062;11.722;2022-10-17T01:36:04;6.90;;;3.83;;
47669;SDS011;33408;52.062;11.722;2022-10-17T01:38:35;6.95;;;4.35;;
47669;SDS011;33408;52.062;11.722;2022-10-17T01:41:07;7.32;;;3.90;;
47669;SDS011;33408;52.062;11.722;2022-10-17T01:43:43;7.18;;;4.40;;
47669;SDS011;33408;52.062;11.722;2022-10-17T01:46:17;7.45;;;4.38;;
47669;SDS011;33408;52.062;11.722;2022-10-17T01:48:50;7.00;;;4.57;;
47669;SDS011;33408;52.062;11.722;2022-10-17T01:51:20;7.30;;;4.90;;
47669;SDS011;33408;52.062;11.722;2022-10-17T01:56:19;9.18;;;5.13;;
47669;SDS011;33408;52.062;11.722;2022-10-17T01:58:51;8.80;;;5.03;;
47669;SDS011;33408;52.062;11.722;2022-10-17T02:01:22;7.68;;;5.20;;
47669;SDS011;33408;52.062;11.722;2022-10-17T02:03:51;9.05;;;5.35;;
47669;SDS011;33408;52.062;11.722;2022-10-17T02:06:19;8.27;;;5.03;;
47669;SDS011;33408;52.062;11.722;2022-10-17T02:08:46;9.90;;;5.68;;
47669;SDS011;33408;52.062;11.722;2022-10-17T02:11:15;8.15;;;5.78;;
47669;SDS011;33408;52.062;11.722;2022-10-17T02:13:50;8.63;;;5.18;;
47669;SDS011;33408;52.062;11.722;2022-10-17T02:16:31;8.45;;;5.72;;
47669;SDS011;33408;52.062;11.722;2022-10-17T02:19:05;9.45;;;6.25;;
47669;SDS011;33408;52.062;11.722;2022-10-17T02:21:44;7.50;;;5.20;;
47669;SDS011;33408;52.062;11.722;2022-10-17T02:24:17;8.88;;;5.47;;
47669;SDS011;33408;52.062;11.722;2022-10-17T02:26:55;10.20;;;6.20;;
47669;SDS011;33408;52.062;11.722;2022-10-17T02:29:32;8.07;;;5.65;;
47669;SDS011;33408;52.062;11.722;2022-10-17T02:32:06;8.55;;;5.50;;
47669;SDS011;33408;52.062;11.722;2022-10-17T02:34:37;8.45;;;5.90;;
47669;SDS011;33408;52.062;11.722;2022-10-17T02:37:07;7.63;;;5.72;;
47669;SDS011;33408;52.062;11.722;2022-10-17T02:39:38;11.05;;;6.55;;
47669;SDS011;33408;52.062;11.722;2022-10-17T02:42:06;8.40;;;5.47;;
47669;SDS011;33408;52.062;11.722;2022-10-17T02:44:36;10.23;;;6.10;;
47669;SDS011;33408;52.062;11.722;2022-10-17T02:47:08;8.23;;;5.97;;
47669;SDS011;33408;52.062;11.722;2022-10-17T02:49:42;10.27;;;6.82;;
47669;SDS011;33408;52.062;11.722;2022-10-17T02:52:15;9.02;;;6.25;;
47669;SDS011;33408;52.062;11.722;2022-10-17T02:54:50;10.05;;;6.70;;
47669;SDS011;33408;52.062;11.722;2022-10-17T02:57:21;9.70;;;5.95;;
47669;SDS011;33408;52.062;11.722;2022-10-17T02:59:50;9.68;;;6.03;;
47669;SDS011;33408;52.062;11.722;2022-10-17T03:02:18;10.07;;;6.13;;
47669;SDS011;33408;52.062;11.722;2022-10-17T03:04:45;9.02;;;6.50;;
47669;SDS011;33408;52.062;11.722;2022-10-17T03:07:12;10.15;;;6.57;;
47669;SDS011;33408;52.062;11.722;2022-10-17T03:09:39;10.32;;;6.60;;
47669;SDS011;33408;52.062;11.722;2022-10-17T03:12:05;17.75;;;6.85;;
47669;SDS011;33408;52.062;11.722;2022-10-17T03:14:32;14.35;;;6.53;;
47669;SDS011;33408;52.062;11.722;2022-10-17T03:16:58;11.75;;;6.80;;
47669;SDS011;33408;52.062;11.722;2022-10-17T03:19:26;10.45;;;6.57;;
47669;SDS011;33408;52.062;11.722;2022-10-17T03:21:53;10.65;;;6.05;;
47669;SDS011;33408;52.062;11.722;2022-10-17T03:24:20;10.82;;;6.95;;
47669;SDS011;33408;52.062;11.722;2022-10-17T03:26:47;10.93;;;6.03;;
47669;SDS011;33408;52.062;11.722;2022-10-17T03:29:13;11.77;;;6.55;;
47669;SDS011;33408;52.062;11.722;2022-10-17T03:31:39;10.43;;;6.45;;
47669;SDS011;33408;52.062;11.722;2022-10-17T03:34:06;8.13;;;6.28;;
47669;SDS011;33408;52.062;11.722;2022-10-17T03:36:34;10.20;;;6.88;;
47669;SDS011;33408;52.062;11.722;2022-10-17T03:39:00;9.10;;;6.78;;
47669;SDS011;33408;52.062;11.722;2022-10-17T03:41:27;10.57;;;6.72;;
47669;SDS011;33408;52.062;11.722;2022-10-17T03:43:53;9.43;;;6.97;;
47669;SDS011;33408;52.062;11.722;2022-10-17T03:46:20;11.32;;;7.05;;
47669;SDS011;33408;52.062;11.722;2022-10-17T03:48:46;10.40;;;7.45;;
47669;SDS011;33408;52.062;11.722;2022-10-17T03:51:13;8.90;;;6.40;;
47669;SDS011;33408;52.062;11.722;2022-10-17T03:53:40;10.05;;;7.10;;
47669;SDS011;33408;52.062;11.722;2022-10-17T03:56:07;9.95;;;7.55;;
47669;SDS011;33408;52.062;11.722;2022-10-17T03:58:35;10.65;;;7.63;;
47669;SDS011;33408;52.062;11.722;2022-10-17T04:01:02;10.02;;;7.18;;
47669;SDS011;33408;52.062;11.722;2022-10-17T04:03:29;10.18;;;7.45;;
47669;SDS011;33408;52.062;11.722;2022-10-17T04:05:57;9.93;;;7.13;;
47669;SDS011;33408;52.062;11.722;2022-10-17T04:08:23;10.55;;;7.35;;
47669;SDS011;33408;52.062;11.722;2022-10-17T04:10:51;10.02;;;7.30;;
47669;SDS011;33408;52.062;11.722;2022-10-17T04:13:18;9.77;;;6.63;;
47669;SDS011;33408;52.062;11.722;2022-10-17T04:15:52;9.40;;;6.63;;
47669;SDS011;33408;52.062;11.722;2022-10-17T04:18:19;11.30;;;7.80;;
47669;SDS011;33408;52.062;11.722;2022-10-17T04:20:45;11.25;;;8.23;;
47669;SDS011;33408;52.062;11.722;2022-10-17T04:23:12;9.75;;;6.90;;
47669;SDS011;33408;52.062;11.722;2022-10-17T04:25:38;9.43;;;6.40;;
47669;SDS011;33408;52.062;11.722;2022-10-17T04:28:06;11.52;;;6.90;;
47669;SDS011;33408;52.062;11.722;2022-10-17T04:30:33;10.93;;;5.93;;
47669;SDS011;33408;52.062;11.722;2022-10-17T04:32:59;10.68;;;7.05;;
47669;SDS011;33408;52.062;11.722;2022-10-17T04:35:26;11.35;;;6.63;;
47669;SDS011;33408;52.062;11.722;2022-10-17T04:37:52;10.70;;;7.00;;
47669;SDS011;33408;52.062;11.722;2022-10-17T04:40:19;11.23;;;7.28;;
47669;SDS011;33408;52.062;11.722;2022-10-17T04:42:45;11.13;;;7.63;;
47669;SDS011;33408;52.062;11.722;2022-10-17T04:45:13;10.38;;;7.22;;
47669;SDS011;33408;52.062;11.722;2022-10-17T04:47:40;10.05;;;7.85;;
47669;SDS011;33408;52.062;11.722;2022-10-17T04:50:07;19.42;;;8.23;;
47669;SDS011;33408;52.062;11.722;2022-10-17T04:52:34;15.45;;;9.52;;
47669;SDS011;33408;52.062;11.722;2022-10-17T04:55:01;17.50;;;11.48;;
47669;SDS011;33408;52.062;11.722;2022-10-17T04:57:28;12.38;;;7.30;;
47669;SDS011;33408;52.062;11.722;2022-10-17T04:59:54;12.25;;;7.18;;
47669;SDS011;33408;52.062;11.722;2022-10-17T05:02:22;9.48;;;6.72;;
47669;SDS011;33408;52.062;11.722;2022-10-17T05:04:49;11.95;;;6.82;;
47669;SDS011;33408;52.062;11.722;2022-10-17T05:07:15;9.77;;;7.13;;
47669;SDS011;33408;52.062;11.722;2022-10-17T05:09:42;10.73;;;7.43;;
47669;SDS011;33408;52.062;11.722;2022-10-17T05:12:08;9.18;;;6.80;;
47669;SDS011;33408;52.062;11.722;2022-10-17T05:14:34;10.27;;;6.45;;
47669;SDS011;33408;52.062;11.722;2022-10-17T05:17:01;10.73;;;6.95;;
47669;SDS011;33408;52.062;11.722;2022-10-17T05:19:29;9.98;;;6.55;;
47669;SDS011;33408;52.062;11.722;2022-10-17T05:21:55;10.25;;;7.07;;
47669;SDS011;33408;52.062;11.722;2022-10-17T05:24:22;9.27;;;6.90;;
47669;SDS011;33408;52.062;11.722;2022-10-17T05:26:48;10.70;;;6.75;;
47669;SDS011;33408;52.062;11.722;2022-10-17T05:29:15;12.60;;;7.53;;
47669;SDS011;33408;52.062;11.722;2022-10-17T05:31:41;9.80;;;7.38;;
47669;SDS011;33408;52.062;11.722;2022-10-17T05:34:08;10.73;;;6.68;;
47669;SDS011;33408;52.062;11.722;2022-10-17T05:36:36;15.35;;;7.30;;
47669;SDS011;33408;52.062;11.722;2022-10-17T05:39:02;10.48;;;7.10;;
47669;SDS011;33408;52.062;11.722;2022-10-17T05:41:29;10.07;;;6.93;;
47669;SDS011;33408;52.062;11.722;2022-10-17T05:43:56;10.38;;;6.80;;
47669;SDS011;33408;52.062;11.722;2022-10-17T05:46:22;10.02;;;6.90;;
47669;SDS011;33408;52.062;11.722;2022-10-17T05:48:49;11.40;;;7.05;;
47669;SDS011;33408;52.062;11.722;2022-10-17T05:51:16;13.55;;;6.93;;
47669;SDS011;33408;52.062;11.722;2022-10-17T05:53:44;9.73;;;6.65;;
47669;SDS011;33408;52.062;11.722;2022-10-17T05:56:11;9.50;;;6.90;;
47669;SDS011;33408;52.062;11.722;2022-10-17T05:58:39;9.23;;;6.93;;
47669;SDS011;33408;52.062;11.722;2022-10-17T06:01:06;10.25;;;6.63;;
47669;SDS011;33408;52.062;11.722;2022-10-17T06:03:33;11.10;;;7.53;;
47669;SDS011;33408;52.062;11.722;2022-10-17T06:06:02;9.02;;;7.05;;
47669;SDS011;33408;52.062;11.722;2022-10-17T06:08:30;10.40;;;6.50;;
47669;SDS011;33408;52.062;11.722;2022-10-17T06:10:58;10.02;;;6.28;;
47669;SDS011;33408;52.062;11.722;2022-10-17T06:13:24;10.65;;;6.30;;
47669;SDS011;33408;52.062;11.722;2022-10-17T06:15:51;9.43;;;5.80;;
47669;SDS011;33408;52.062;11.722;2022-10-17T06:18:18;8.82;;;5.70;;
47669;SDS011;33408;52.062;11.722;2022-10-17T06:20:44;11.73;;;6.07;;
47669;SDS011;33408;52.062;11.722;2022-10-17T06:23:11;8.85;;;5.63;;
47669;SDS011;33408;52.062;11.722;2022-10-17T06:25:37;13.43;;;6.57;;
47669;SDS011;33408;52.062;11.722;2022-10-17T06:28:05;10.30;;;5.88;;
47669;SDS011;33408;52.062;11.722;2022-10-17T06:30:31;11.38;;;5.88;;
47669;SDS011;33408;52.062;11.722;2022-10-17T06:32:58;10.85;;;6.22;;
47669;SDS011;33408;52.062;11.722;2022-10-17T06:35:25;12.02;;;6.03;;
47669;SDS011;33408;52.062;11.722;2022-10-17T06:37:51;12.27;;;6.57;;
47669;SDS011;33408;52.062;11.722;2022-10-17T06:40:18;11.88;;;6.68;;
47669;SDS011;33408;52.062;11.722;2022-10-17T06:42:44;11.90;;;6.38;;
47669;SDS011;33408;52.062;11.722;2022-10-17T06:45:13;13.55;;;6.80;;
47669;SDS011;33408;52.062;11.722;2022-10-17T06:47:39;12.50;;;7.10;;
47669;SDS011;33408;52.062;11.722;2022-10-17T06:50:06;11.63;;;6.75;;
47669;SDS011;33408;52.062;11.722;2022-10-17T06:52:33;11.75;;;7.10;;
47669;SDS011;33408;52.062;11.722;2022-10-17T06:55:00;12.75;;;6.47;;
47669;SDS011;33408;52.062;11.722;2022-10-17T06:57:26;19.73;;;6.68;;
47669;SDS011;33408;52.062;11.722;2022-10-17T06:59:53;10.23;;;6.30;;
47669;SDS011;33408;52.062;11.722;2022-10-17T07:02:20;9.30;;;5.93;;
47669;SDS011;33408;52.062;11.722;2022-10-17T07:04:48;12.73;;;7.20;;
47669;SDS011;33408;52.062;11.722;2022-10-17T07:07:14;16.80;;;6.60;;
47669;SDS011;33408;52.062;11.722;2022-10-17T07:09:41;10.38;;;5.45;;
47669;SDS011;33408;52.062;11.722;2022-10-17T07:12:08;12.13;;;5.60;;
47669;SDS011;33408;52.062;11.722;2022-10-17T07:14:36;10.48;;;4.50;;
47669;SDS011;33408;52.062;11.722;2022-10-17T07:17:03;8.38;;;4.57;;
47669;SDS011;33408;52.062;11.722;2022-10-17T07:19:31;9.10;;;5.15;;
47669;SDS011;33408;52.062;11.722;2022-10-17T07:21:57;13.95;;;4.35;;
47669;SDS011;33408;52.062;11.722;2022-10-17T07:24:24;7.90;;;4.70;;
47669;SDS011;33408;52.062;11.722;2022-10-17T07:26:50;11.45;;;4.80;;
47669;SDS011;33408;52.062;11.722;2022-10-17T07:29:17;12.40;;;4.85;;
47669;SDS011;33408;52.062;11.722;2022-10-17T07:31:43;9.88;;;4.60;;
47669;SDS011;33408;52.062;11.722;2022-10-17T07:34:12;12.23;;;4.70;;
47669;SDS011;33408;52.062;11.722;2022-10-17T07:36:40;8.32;;;4.50;;
47669;SDS011;33408;52.062;11.722;2022-10-17T07:39:07;9.18;;;4.00;;
47669;SDS011;33408;52.062;11.722;2022-10-17T07:41:33;9.65;;;4.30;;
47669;SDS011;33408;52.062;11.722;2022-10-17T07:44:00;6.53;;;3.92;;
47669;SDS011;33408;52.062;11.722;2022-10-17T07:46:27;7.80;;;4.00;;
47669;SDS011;33408;52.062;11.722;2022-10-17T07:48:53;8.23;;;4.22;;
47669;SDS011;33408;52.062;11.722;2022-10-17T07:51:20;11.40;;;4.68;;
47669;SDS011;33408;52.062;11.722;2022-10-17T07:53:47;10.60;;;3.78;;
47669;SDS011;33408;52.062;11.722;2022-10-17T07:56:14;10.73;;;3.55;;
47669;SDS011;33408;52.062;11.722;2022-10-17T07:58:41;7.40;;;3.97;;
47669;SDS011;33408;52.062;11.722;2022-10-17T08:01:08;8.30;;;3.63;;
47669;SDS011;33408;52.062;11.722;2022-10-17T08:03:39;7.32;;;3.65;;
47669;SDS011;33408;52.062;11.722;2022-10-17T08:06:06;8.55;;;3.75;;
47669;SDS011;33408;52.062;11.722;2022-10-17T08:08:32;11.40;;;3.58;;
47669;SDS011;33408;52.062;11.722;2022-10-17T08:11:02;9.18;;;4.45;;
47669;SDS011;33408;52.062;11.722;2022-10-17T08:13:29;12.45;;;3.65;;
47669;SDS011;33408;52.062;11.722;2022-10-17T08:15:57;6.78;;;3.33;;
47669;SDS011;33408;52.062;11.722;2022-10-17T08:18:24;6.50;;;3.38;;
47669;SDS011;33408;52.062;11.722;2022-10-17T08:20:51;10.50;;;4.07;;
47669;SDS011;33408;52.062;11.722;2022-10-17T08:23:17;6.45;;;3.45;;
47669;SDS011;33408;52.062;11.722;2022-10-17T08:25:44;8.60;;;3.13;;
47669;SDS011;33408;52.062;11.722;2022-10-17T08:28:12;7.05;;;3.30;;
47669;SDS011;33408;52.062;11.722;2022-10-17T08:30:38;8.40;;;3.47;;
47669;SDS011;33408;52.062;11.722;2022-10-17T08:33:05;8.73;;;3.05;;
47669;SDS011;33408;52.062;11.722;2022-10-17T08:35:31;7.28;;;3.10;;
47669;SDS011;33408;52.062;11.722;2022-10-17T08:37:58;8.80;;;2.78;;
47669;SDS011;33408;52.062;11.722;2022-10-17T08:40:26;9.70;;;3.30;;
47669;SDS011;33408;52.062;11.722;2022-10-17T08:43:10;5.63;;;2.25;;
47669;SDS011;33408;52.062;11.722;2022-10-17T08:45:50;9.13;;;3.25;;
47669;SDS011;33408;52.062;11.722;2022-10-17T08:48:20;8.40;;;2.70;;
47669;SDS011;33408;52.062;11.722;2022-10-17T08:50:51;10.10;;;2.75;;
47669;SDS011;33408;52.062;11.722;2022-10-17T08:53:21;5.50;;;2.65;;
47669;SDS011;33408;52.062;11.722;2022-10-17T08:58:22;10.35;;;2.90;;
47669;SDS011;33408;52.062;11.722;2022-10-17T09:03:30;4.85;;;2.53;;
47669;SDS011;33408;52.062;11.722;2022-10-17T09:06:10;4.53;;;2.08;;
47669;SDS011;33408;52.062;11.722;2022-10-17T09:08:43;10.70;;;2.90;;
47669;SDS011;33408;52.062;11.722;2022-10-17T09:11:34;9.18;;;2.22;;
47669;SDS011;33408;52.062;11.722;2022-10-17T09:14:17;6.57;;;2.28;;
47669;SDS011;33408;52.062;11.722;2022-10-17T09:17:14;4.53;;;1.88;;
47669;SDS011;33408;52.062;11.722;2022-10-17T09:19:57;6.10;;;2.42;;
47669;SDS011;33408;52.062;11.722;2022-10-17T09:22:27;10.45;;;2.63;;
47669;SDS011;33408;52.062;11.722;2022-10-17T09:24:59;4.85;;;2.45;;
47669;SDS011;33408;52.062;11.722;2022-10-17T09:27:32;12.02;;;2.55;;
47669;SDS011;33408;52.062;11.722;2022-10-17T09:30:12;6.07;;;2.40;;
47669;SDS011;33408;52.062;11.722;2022-10-17T09:32:45;6.55;;;2.10;;
47669;SDS011;33408;52.062;11.722;2022-10-17T09:35:12;7.45;;;2.33;;
47669;SDS011;33408;52.062;11.722;2022-10-17T09:37:40;5.68;;;2.00;;
47669;SDS011;33408;52.062;11.722;2022-10-17T09:40:07;6.18;;;2.20;;
47669;SDS011;33408;52.062;11.722;2022-10-17T09:42:41;6.88;;;2.10;;
47669;SDS011;33408;52.062;11.722;2022-10-17T09:45:15;7.95;;;2.22;;
47669;SDS011;33408;52.062;11.722;2022-10-17T09:47:49;8.75;;;1.92;;
47669;SDS011;33408;52.062;11.722;2022-10-17T09:50:23;6.25;;;2.20;;
47669;SDS011;33408;52.062;11.722;2022-10-17T09:52:52;6.25;;;2.03;;
47669;SDS011;33408;52.062;11.722;2022-10-17T09:55:20;7.28;;;2.17;;
47669;SDS011;33408;52.062;11.722;2022-10-17T09:57:51;9.23;;;2.63;;
47669;SDS011;33408;52.062;11.722;2022-10-17T10:00:22;6.22;;;2.33;;
47669;SDS011;33408;52.062;11.722;2022-10-17T10:02:50;5.90;;;2.30;;
47669;SDS011;33408;52.062;11.722;2022-10-17T10:05:17;10.73;;;2.70;;
47669;SDS011;33408;52.062;11.722;2022-10-17T10:07:58;7.88;;;2.00;;
47669;SDS011;33408;52.062;11.722;2022-10-17T10:10:27;9.50;;;1.97;;
47669;SDS011;33408;52.062;11.722;2022-10-17T10:13:02;6.68;;;2.30;;
47669;SDS011;33408;52.062;11.722;2022-10-17T10:15:35;6.05;;;2.10;;
47669;SDS011;33408;52.062;11.722;2022-10-17T10:21:02;6.50;;;2.40;;
47669;SDS011;33408;52.062;11.722;2022-10-17T10:23:36;4.22;;;1.70;;
47669;SDS011;33408;52.062;11.722;2022-10-17T10:26:17;8.25;;;2.30;;
47669;SDS011;33408;52.062;11.722;2022-10-17T10:28:51;6.55;;;1.73;;
47669;SDS011;33408;52.062;11.722;2022-10-17T10:31:29;7.47;;;2.03;;
47669;SDS011;33408;52.062;11.722;2022-10-17T10:33:59;2.88;;;1.60;;
47669;SDS011;33408;52.062;11.722;2022-10-17T10:36:44;7.63;;;2.42;;
47669;SDS011;33408;52.062;11.722;2022-10-17T10:39:19;6.53;;;2.00;;
47669;SDS011;33408;52.062;11.722;2022-10-17T10:41:53;4.57;;;2.00;;
47669;SDS011;33408;52.062;11.722;2022-10-17T10:44:20;5.03;;;2.10;;
47669;SDS011;33408;52.062;11.722;2022-10-17T10:47:05;7.05;;;2.22;;
47669;SDS011;33408;52.062;11.722;2022-10-17T10:51:59;7.57;;;2.03;;
47669;SDS011;33408;52.062;11.722;2022-10-17T10:54:31;4.65;;;1.92;;
47669;SDS011;33408;52.062;11.722;2022-10-17T10:57:03;3.85;;;1.75;;
47669;SDS011;33408;52.062;11.722;2022-10-17T10:59:34;4.65;;;2.15;;
47669;SDS011;33408;52.062;11.722;2022-10-17T11:04:39;5.95;;;1.80;;
47669;SDS011;33408;52.062;11.722;2022-10-17T11:07:12;8.80;;;2.63;;
47669;SDS011;33408;52.062;11.722;2022-10-17T11:09:44;5.38;;;1.83;;
47669;SDS011;33408;52.062;11.722;2022-10-17T11:12:19;11.05;;;2.53;;
47669;SDS011;33408;52.062;11.722;2022-10-17T11:14:50;6.82;;;2.05;;
47669;SDS011;33408;52.062;11.722;2022-10-17T11:17:26;5.22;;;2.38;;
47669;SDS011;33408;52.062;11.722;2022-10-17T11:20:05;6.55;;;2.53;;
47669;SDS011;33408;52.062;11.722;2022-10-17T11:22:42;5.45;;;2.22;;
47669;SDS011;33408;52.062;11.722;2022-10-17T11:25:18;8.00;;;2.30;;
47669;SDS011;33408;52.062;11.722;2022-10-17T11:27:59;5.93;;;2.13;;
47669;SDS011;33408;52.062;11.722;2022-10-17T11:30:27;7.63;;;2.00;;
47669;SDS011;33408;52.062;11.722;2022-10-17T11:33:01;5.57;;;2.25;;
47669;SDS011;33408;52.062;11.722;2022-10-17T11:35:30;11.90;;;2.20;;
47669;SDS011;33408;52.062;11.722;2022-10-17T11:38:14;10.45;;;2.55;;
47669;SDS011;33408;52.062;11.722;2022-10-17T11:40:44;10.35;;;2.22;;
47669;SDS011;33408;52.062;11.722;2022-10-17T11:43:15;5.65;;;2.40;;
47669;SDS011;33408;52.062;11.722;2022-10-17T11:45:46;12.90;;;2.45;;
47669;SDS011;33408;52.062;11.722;2022-10-17T11:48:18;4.75;;;2.28;;
47669;SDS011;33408;52.062;11.722;2022-10-17T11:50:49;8.45;;;2.00;;
47669;SDS011;33408;52.062;11.722;2022-10-17T11:53:23;8.27;;;2.05;;
47669;SDS011;33408;52.062;11.722;2022-10-17T11:55:53;5.68;;;2.33;;
47669;SDS011;33408;52.062;11.722;2022-10-17T11:58:26;3.78;;;1.65;;
47669;SDS011;33408;52.062;11.722;2022-10-17T12:00:59;15.75;;;2.58;;
47669;SDS011;33408;52.062;11.722;2022-10-17T12:03:41;5.85;;;2.10;;
47669;SDS011;33408;52.062;11.722;2022-10-17T12:06:15;10.23;;;2.30;;
47669;SDS011;33408;52.062;11.722;2022-10-17T12:08:52;4.68;;;1.95;;
47669;SDS011;33408;52.062;11.722;2022-10-17T12:13:58;5.50;;;2.10;;
47669;SDS011;33408;52.062;11.722;2022-10-17T12:16:35;5.10;;;2.10;;
47669;SDS011;33408;52.062;11.722;2022-10-17T12:19:26;8.77;;;2.33;;
47669;SDS011;33408;52.062;11.722;2022-10-17T12:21:57;4.45;;;1.85;;
47669;SDS011;33408;52.062;11.722;2022-10-17T12:24:31;7.72;;;2.65;;
47669;SDS011;33408;52.062;11.722;2022-10-17T12:27:21;7.53;;;2.08;;
47669;SDS011;33408;52.062;11.722;2022-10-17T12:29:57;6.88;;;2.30;;
47669;SDS011;33408;52.062;11.722;2022-10-17T12:32:24;6.28;;;1.92;;
47669;SDS011;33408;52.062;11.722;2022-10-17T12:34:53;5.90;;;2.17;;
47669;SDS011;33408;52.062;11.722;2022-10-17T12:40:49;7.22;;;2.03;;
47669;SDS011;33408;52.062;11.722;2022-10-17T12:55:11;6.13;;;2.25;;
47669;SDS011;33408;52.062;11.722;2022-10-17T12:57:40;8.30;;;2.10;;
47669;SDS011;33408;52.062;11.722;2022-10-17T13:00:14;9.15;;;2.10;;
47669;SDS011;33408;52.062;11.722;2022-10-17T13:02:45;6.00;;;1.90;;
47669;SDS011;33408;52.062;11.722;2022-10-17T13:05:13;5.45;;;2.00;;
47669;SDS011;33408;52.062;11.722;2022-10-17T13:07:44;8.45;;;1.95;;
47669;SDS011;33408;52.062;11.722;2022-10-17T13:10:21;7.15;;;1.80;;
47669;SDS011;33408;52.062;11.722;2022-10-17T13:12:49;6.55;;;1.80;;
47669;SDS011;33408;52.062;11.722;2022-10-17T13:15:19;9.02;;;1.92;;
47669;SDS011;33408;52.062;11.722;2022-10-17T13:17:54;2.85;;;1.40;;
47669;SDS011;33408;52.062;11.722;2022-10-17T13:20:23;6.45;;;2.05;;
47669;SDS011;33408;52.062;11.722;2022-10-17T13:22:52;6.57;;;1.92;;
47669;SDS011;33408;52.062;11.722;2022-10-17T13:25:21;7.53;;;2.70;;
47669;SDS011;33408;52.062;11.722;2022-10-17T13:27:49;8.52;;;1.85;;
47669;SDS011;33408;52.062;11.722;2022-10-17T13:30:28;4.38;;;1.85;;
47669;SDS011;33408;52.062;11.722;2022-10-17T13:32:56;5.25;;;1.63;;
47669;SDS011;33408;52.062;11.722;2022-10-17T13:35:24;7.00;;;1.90;;
47669;SDS011;33408;52.062;11.722;2022-10-17T13:37:53;5.18;;;1.80;;
47669;SDS011;33408;52.062;11.722;2022-10-17T13:40:23;4.40;;;1.75;;
47669;SDS011;33408;52.062;11.722;2022-10-17T13:42:50;6.35;;;1.70;;
47669;SDS011;33408;52.062;11.722;2022-10-17T13:45:19;5.35;;;1.63;;
47669;SDS011;33408;52.062;11.722;2022-10-17T13:47:51;8.48;;;1.60;;
47669;SDS011;33408;52.062;11.722;2022-10-17T13:50:19;3.65;;;1.48;;
47669;SDS011;33408;52.062;11.722;2022-10-17T13:53:04;4.15;;;1.65;;
47669;SDS011;33408;52.062;11.722;2022-10-17T13:55:50;7.35;;;2.03;;
47669;SDS011;33408;52.062;11.722;2022-10-17T13:58:20;5.47;;;1.90;;
47669;SDS011;33408;52.062;11.722;2022-10-17T14:00:47;10.43;;;1.95;;
47669;SDS011;33408;52.062;11.722;2022-10-17T14:03:16;7.63;;;1.77;;
47669;SDS011;33408;52.062;11.722;2022-10-17T14:06:06;5.50;;;1.80;;
47669;SDS011;33408;52.062;11.722;2022-10-17T14:08:44;5.22;;;1.60;;
47669;SDS011;33408;52.062;11.722;2022-10-17T14:11:27;7.07;;;1.70;;
47669;SDS011;33408;52.062;11.722;2022-10-17T14:13:58;7.15;;;1.90;;
47669;SDS011;33408;52.062;11.722;2022-10-17T14:16:32;5.20;;;1.70;;
47669;SDS011;33408;52.062;11.722;2022-10-17T14:19:00;8.48;;;1.90;;
47669;SDS011;33408;52.062;11.722;2022-10-17T14:21:27;2.97;;;1.48;;
47669;SDS011;33408;52.062;11.722;2022-10-17T14:26:52;7.05;;;1.65;;
47669;SDS011;33408;52.062;11.722;2022-10-17T14:29:23;6.30;;;1.70;;
47669;SDS011;33408;52.062;11.722;2022-10-17T14:31:56;6.55;;;1.60;;
47669;SDS011;33408;52.062;11.722;2022-10-17T14:34:27;5.22;;;1.70;;
47669;SDS011;33408;52.062;11.722;2022-10-17T14:36:55;4.25;;;1.75;;
47669;SDS011;33408;52.062;11.722;2022-10-17T14:39:23;5.50;;;1.70;;
47669;SDS011;33408;52.062;11.722;2022-10-17T14:41:52;4.20;;;1.80;;
47669;SDS011;33408;52.062;11.722;2022-10-17T14:44:21;6.18;;;1.80;;
47669;SDS011;33408;52.062;11.722;2022-10-17T14:46:53;9.35;;;1.77;;
47669;SDS011;33408;52.062;11.722;2022-10-17T14:49:25;7.32;;;2.00;;
47669;SDS011;33408;52.062;11.722;2022-10-17T14:52:11;12.10;;;2.13;;
47669;SDS011;33408;52.062;11.722;2022-10-17T14:54:52;5.97;;;2.00;;
47669;SDS011;33408;52.062;11.722;2022-10-17T14:57:21;4.65;;;1.52;;
47669;SDS011;33408;52.062;11.722;2022-10-17T14:59:53;8.10;;;1.80;;
47669;SDS011;33408;52.062;11.722;2022-10-17T15:02:20;10.05;;;1.88;;
47669;SDS011;33408;52.062;11.722;2022-10-17T15:04:47;5.53;;;2.17;;
47669;SDS011;33408;52.062;11.722;2022-10-17T15:07:15;9.88;;;2.25;;
47669;SDS011;33408;52.062;11.722;2022-10-17T15:09:43;9.80;;;1.80;;
47669;SDS011;33408;52.062;11.722;2022-10-17T15:12:13;7.35;;;1.98;;
47669;SDS011;33408;52.062;11.722;2022-10-17T15:14:42;5.63;;;1.70;;
47669;SDS011;33408;52.062;11.722;2022-10-17T15:17:11;8.55;;;2.38;;
47669;SDS011;33408;52.062;11.722;2022-10-17T15:19:39;5.15;;;2.00;;
47669;SDS011;33408;52.062;11.722;2022-10-17T15:22:06;7.32;;;2.03;;
47669;SDS011;33408;52.062;11.722;2022-10-17T15:24:32;4.97;;;1.98;;
47669;SDS011;33408;52.062;11.722;2022-10-17T15:26:59;6.22;;;1.40;;
47669;SDS011;33408;52.062;11.722;2022-10-17T15:29:25;6.30;;;1.90;;
47669;SDS011;33408;52.062;11.722;2022-10-17T15:31:53;6.85;;;1.77;;
47669;SDS011;33408;52.062;11.722;2022-10-17T15:34:20;6.90;;;1.80;;